sensor_id;sensor_type;location;lat;lon;timestamp;temperature;humidity
65038;DHT22;51605;47.040;15.294;2023-10-08T00:00:47;24.00;49.70
65038;DHT22;51605;47.040;15.294;2023-10-08T00:03:21;24.00;49.60
65038;DHT22;51605;47.040;15.294;2023-10-08T00:05:47;23.90;49.60
65038;DHT22;51605;47.040;15.294;2023-10-08T00:08:15;23.90;49.60
65038;DHT22;51605;47.040;15.294;2023-10-08T00:10:42;23.90;49.60
65038;DHT22;51605;47.040;15.294;2023-10-08T00:13:10;23.90;49.80
65038;DHT22;51605;47.040;15.294;2023-10-08T00:15:39;23.90;50.60
65038;DHT22;51605;47.040;15.294;2023-10-08T00:18:23;23.90;49.70
65038;DHT22;51605;47.040;15.294;2023-10-08T00:20:50;23.90;49.70
65038;DHT22;51605;47.040;15.294;2023-10-08T00:23:42;23.90;49.90
65038;DHT22;51605;47.040;15.294;2023-10-08T00:26:08;23.90;49.70
65038;DHT22;51605;47.040;15.294;2023-10-08T00:28:34;24.00;49.80
65038;DHT22;51605;47.040;15.294;2023-10-08T00:31:03;23.90;49.70
65038;DHT22;51605;47.040;15.294;2023-10-08T00:33:32;23.90;49.80
65038;DHT22;51605;47.040;15.294;2023-10-08T00:35:57;23.90;49.70
65038;DHT22;51605;47.040;15.294;2023-10-08T00:38:24;24.00;49.80
65038;DHT22;51605;47.040;15.294;2023-10-08T00:40:57;24.00;49.80
65038;DHT22;51605;47.040;15.294;2023-10-08T00:43:32;23.90;49.70
65038;DHT22;51605;47.040;15.294;2023-10-08T00:46:04;23.90;49.80
65038;DHT22;51605;47.040;15.294;2023-10-08T00:48:31;24.00;49.80
65038;DHT22;51605;47.040;15.294;2023-10-08T00:51:03;23.90;49.80
65038;DHT22;51605;47.040;15.294;2023-10-08T00:54:02;23.90;49.80
65038;DHT22;51605;47.040;15.294;2023-10-08T00:56:33;23.90;49.80
65038;DHT22;51605;47.040;15.294;2023-10-08T00:59:15;23.90;49.80
65038;DHT22;51605;47.040;15.294;2023-10-08T01:01:44;23.90;49.80
65038;DHT22;51605;47.040;15.294;2023-10-08T01:04:21;23.90;49.80
65038;DHT22;51605;47.040;15.294;2023-10-08T01:06:54;23.90;49.80
65038;DHT22;51605;47.040;15.294;2023-10-08T01:09:38;23.90;49.80
65038;DHT22;51605;47.040;15.294;2023-10-08T01:12:19;23.90;49.90
65038;DHT22;51605;47.040;15.294;2023-10-08T01:14:46;23.90;49.80
65038;DHT22;51605;47.040;15.294;2023-10-08T01:17:13;23.90;49.80
65038;DHT22;51605;47.040;15.294;2023-10-08T01:19:47;23.90;49.90
65038;DHT22;51605;47.040;15.294;2023-10-08T01:22:16;23.90;50.00
65038;DHT22;51605;47.040;15.294;2023-10-08T01:24:48;23.90;50.00
65038;DHT22;51605;47.040;15.294;2023-10-08T01:27:22;23.90;49.90
65038;DHT22;51605;47.040;15.294;2023-10-08T01:29:51;23.90;49.90
65038;DHT22;51605;47.040;15.294;2023-10-08T01:32:18;23.90;49.90
65038;DHT22;51605;47.040;15.294;2023-10-08T01:34:44;23.90;49.90
65038;DHT22;51605;47.040;15.294;2023-10-08T01:37:14;23.90;49.90
65038;DHT22;51605;47.040;15.294;2023-10-08T01:39:43;23.90;49.90
65038;DHT22;51605;47.040;15.294;2023-10-08T01:42:09;23.90;50.00
65038;DHT22;51605;47.040;15.294;2023-10-08T01:44:47;23.90;49.90
65038;DHT22;51605;47.040;15.294;2023-10-08T01:47:13;23.90;49.90
65038;DHT22;51605;47.040;15.294;2023-10-08T01:49:39;23.90;49.90
65038;DHT22;51605;47.040;15.294;2023-10-08T01:52:06;24.00;49.80
65038;DHT22;51605;47.040;15.294;2023-10-08T01:54:39;24.00;49.90
65038;DHT22;51605;47.040;15.294;2023-10-08T01:57:05;24.00;49.90
65038;DHT22;51605;47.040;15.294;2023-10-08T01:59:34;24.00;49.90
65038;DHT22;51605;47.040;15.294;2023-10-08T02:02:00;24.00;50.00
65038;DHT22;51605;47.040;15.294;2023-10-08T02:04:25;24.00;50.00
65038;DHT22;51605;47.040;15.294;2023-10-08T02:06:51;24.00;50.00
65038;DHT22;51605;47.040;15.294;2023-10-08T02:09:17;23.90;50.00
65038;DHT22;51605;47.040;15.294;2023-10-08T02:11:49;23.90;50.00
65038;DHT22;51605;47.040;15.294;2023-10-08T02:14:19;23.90;50.00
65038;DHT22;51605;47.040;15.294;2023-10-08T02:16:46;23.90;50.00
65038;DHT22;51605;47.040;15.294;2023-10-08T02:19:12;24.00;50.10
65038;DHT22;51605;47.040;15.294;2023-10-08T02:21:38;24.00;50.00
65038;DHT22;51605;47.040;15.294;2023-10-08T02:24:08;24.00;50.00
65038;DHT22;51605;47.040;15.294;2023-10-08T02:26:34;23.90;50.00
65038;DHT22;51605;47.040;15.294;2023-10-08T02:29:01;24.00;50.00
65038;DHT22;51605;47.040;15.294;2023-10-08T02:31:26;24.00;50.10
65038;DHT22;51605;47.040;15.294;2023-10-08T02:33:53;24.00;50.10
65038;DHT22;51605;47.040;15.294;2023-10-08T02:36:19;23.90;50.00
65038;DHT22;51605;47.040;15.294;2023-10-08T02:38:45;23.90;50.10
65038;DHT22;51605;47.040;15.294;2023-10-08T02:41:16;24.00;50.20
65038;DHT22;51605;47.040;15.294;2023-10-08T02:43:42;23.90;50.10
65038;DHT22;51605;47.040;15.294;2023-10-08T02:46:10;23.90;50.10
65038;DHT22;51605;47.040;15.294;2023-10-08T02:48:41;23.90;50.10
65038;DHT22;51605;47.040;15.294;2023-10-08T02:51:06;23.90;50.10
65038;DHT22;51605;47.040;15.294;2023-10-08T02:53:41;23.90;50.10
65038;DHT22;51605;47.040;15.294;2023-10-08T02:56:09;23.90;50.10
65038;DHT22;51605;47.040;15.294;2023-10-08T02:58:42;23.90;50.10
65038;DHT22;51605;47.040;15.294;2023-10-08T03:01:13;23.90;50.10
65038;DHT22;51605;47.040;15.294;2023-10-08T03:03:41;23.90;50.10
65038;DHT22;51605;47.040;15.294;2023-10-08T03:06:08;23.90;50.10
65038;DHT22;51605;47.040;15.294;2023-10-08T03:08:40;23.90;50.10
65038;DHT22;51605;47.040;15.294;2023-10-08T03:11:10;23.90;50.10
65038;DHT22;51605;47.040;15.294;2023-10-08T03:13:45;23.90;50.10
65038;DHT22;51605;47.040;15.294;2023-10-08T03:16:17;23.90;50.00
65038;DHT22;51605;47.040;15.294;2023-10-08T03:18:47;23.90;50.10
65038;DHT22;51605;47.040;15.294;2023-10-08T03:21:16;23.90;50.10
65038;DHT22;51605;47.040;15.294;2023-10-08T03:24:07;23.90;50.10
65038;DHT22;51605;47.040;15.294;2023-10-08T03:26:38;23.90;50.10
65038;DHT22;51605;47.040;15.294;2023-10-08T03:29:05;23.90;50.10
65038;DHT22;51605;47.040;15.294;2023-10-08T03:31:41;23.90;50.20
65038;DHT22;51605;47.040;15.294;2023-10-08T03:34:19;23.90;50.20
65038;DHT22;51605;47.040;15.294;2023-10-08T03:36:45;23.90;50.10
65038;DHT22;51605;47.040;15.294;2023-10-08T03:39:12;23.90;50.20
65038;DHT22;51605;47.040;15.294;2023-10-08T03:41:41;23.90;50.20
65038;DHT22;51605;47.040;15.294;2023-10-08T03:44:08;23.90;50.20
65038;DHT22;51605;47.040;15.294;2023-10-08T03:46:42;23.90;50.40
65038;DHT22;51605;47.040;15.294;2023-10-08T03:49:14;23.90;50.20
65038;DHT22;51605;47.040;15.294;2023-10-08T03:52:00;23.90;50.20
65038;DHT22;51605;47.040;15.294;2023-10-08T03:54:26;23.90;50.10
65038;DHT22;51605;47.040;15.294;2023-10-08T03:57:02;23.90;50.20
65038;DHT22;51605;47.040;15.294;2023-10-08T03:59:29;23.90;50.20
65038;DHT22;51605;47.040;15.294;2023-10-08T04:02:03;23.90;50.30
65038;DHT22;51605;47.040;15.294;2023-10-08T04:04:49;23.90;50.30
65038;DHT22;51605;47.040;15.294;2023-10-08T04:07:22;23.90;50.20
65038;DHT22;51605;47.040;15.294;2023-10-08T04:09:55;23.90;50.30
65038;DHT22;51605;47.040;15.294;2023-10-08T04:12:39;23.90;50.30
65038;DHT22;51605;47.040;15.294;2023-10-08T04:15:14;23.90;50.30
65038;DHT22;51605;47.040;15.294;2023-10-08T04:17:41;23.90;50.30
65038;DHT22;51605;47.040;15.294;2023-10-08T04:20:11;23.90;50.30
65038;DHT22;51605;47.040;15.294;2023-10-08T04:22:57;23.90;50.30
65038;DHT22;51605;47.040;15.294;2023-10-08T04:25:30;23.90;50.30
65038;DHT22;51605;47.040;15.294;2023-10-08T04:27:57;23.90;50.30
65038;DHT22;51605;47.040;15.294;2023-10-08T04:30:27;23.90;50.30
65038;DHT22;51605;47.040;15.294;2023-10-08T04:33:02;23.90;50.30
65038;DHT22;51605;47.040;15.294;2023-10-08T04:35:42;23.90;50.30
65038;DHT22;51605;47.040;15.294;2023-10-08T04:38:20;23.90;50.30
65038;DHT22;51605;47.040;15.294;2023-10-08T04:40:47;23.90;50.40
65038;DHT22;51605;47.040;15.294;2023-10-08T04:43:23;23.90;50.30
65038;DHT22;51605;47.040;15.294;2023-10-08T04:45:56;23.90;50.30
65038;DHT22;51605;47.040;15.294;2023-10-08T04:48:23;23.90;50.30
65038;DHT22;51605;47.040;15.294;2023-10-08T04:50:50;23.90;50.40
65038;DHT22;51605;47.040;15.294;2023-10-08T04:53:27;23.90;50.30
65038;DHT22;51605;47.040;15.294;2023-10-08T04:56:01;23.90;50.30
65038;DHT22;51605;47.040;15.294;2023-10-08T04:58:42;23.90;50.30
65038;DHT22;51605;47.040;15.294;2023-10-08T05:01:12;23.90;50.30
65038;DHT22;51605;47.040;15.294;2023-10-08T05:03:47;23.90;50.50
65038;DHT22;51605;47.040;15.294;2023-10-08T05:06:34;23.90;50.30
65038;DHT22;51605;47.040;15.294;2023-10-08T05:09:07;23.90;50.40
65038;DHT22;51605;47.040;15.294;2023-10-08T05:11:52;23.90;50.40
65038;DHT22;51605;47.040;15.294;2023-10-08T05:14:22;23.90;50.40
65038;DHT22;51605;47.040;15.294;2023-10-08T05:17:06;23.90;50.40
65038;DHT22;51605;47.040;15.294;2023-10-08T05:19:40;23.90;50.40
65038;DHT22;51605;47.040;15.294;2023-10-08T05:22:07;23.90;50.40
65038;DHT22;51605;47.040;15.294;2023-10-08T05:24:52;23.90;50.40
65038;DHT22;51605;47.040;15.294;2023-10-08T05:27:52;23.90;50.40
65038;DHT22;51605;47.040;15.294;2023-10-08T05:30:18;23.90;50.30
65038;DHT22;51605;47.040;15.294;2023-10-08T05:33:04;23.90;50.50
65038;DHT22;51605;47.040;15.294;2023-10-08T05:35:34;23.90;50.40
65038;DHT22;51605;47.040;15.294;2023-10-08T05:38:06;23.90;50.50
65038;DHT22;51605;47.040;15.294;2023-10-08T05:40:51;23.90;50.60
65038;DHT22;51605;47.040;15.294;2023-10-08T05:43:33;23.80;50.80
65038;DHT22;51605;47.040;15.294;2023-10-08T05:46:12;23.80;50.80
65038;DHT22;51605;47.040;15.294;2023-10-08T05:49:07;23.80;50.80
65038;DHT22;51605;47.040;15.294;2023-10-08T05:54:22;23.80;50.80
65038;DHT22;51605;47.040;15.294;2023-10-08T05:57:06;23.70;50.70
65038;DHT22;51605;47.040;15.294;2023-10-08T05:59:39;23.70;50.70
65038;DHT22;51605;47.040;15.294;2023-10-08T06:02:28;23.80;50.80
65038;DHT22;51605;47.040;15.294;2023-10-08T06:05:06;23.70;50.70
65038;DHT22;51605;47.040;15.294;2023-10-08T06:07:50;23.70;50.80
65038;DHT22;51605;47.040;15.294;2023-10-08T06:10:27;23.70;51.70
65038;DHT22;51605;47.040;15.294;2023-10-08T06:15:48;23.70;50.80
65038;DHT22;51605;47.040;15.294;2023-10-08T06:18:31;23.80;50.80
65038;DHT22;51605;47.040;15.294;2023-10-08T06:21:05;23.80;50.80
65038;DHT22;51605;47.040;15.294;2023-10-08T06:23:35;23.80;50.80
65038;DHT22;51605;47.040;15.294;2023-10-08T06:26:02;23.80;50.80
65038;DHT22;51605;47.040;15.294;2023-10-08T06:28:43;23.80;50.80
65038;DHT22;51605;47.040;15.294;2023-10-08T06:31:10;23.80;50.80
65038;DHT22;51605;47.040;15.294;2023-10-08T06:33:43;23.70;50.70
65038;DHT22;51605;47.040;15.294;2023-10-08T06:36:09;23.70;50.70
65038;DHT22;51605;47.040;15.294;2023-10-08T06:38:40;23.70;50.80
65038;DHT22;51605;47.040;15.294;2023-10-08T06:41:10;23.70;50.80
65038;DHT22;51605;47.040;15.294;2023-10-08T06:43:39;23.70;50.70
65038;DHT22;51605;47.040;15.294;2023-10-08T06:46:08;23.70;50.80
65038;DHT22;51605;47.040;15.294;2023-10-08T06:48:38;23.70;50.80
65038;DHT22;51605;47.040;15.294;2023-10-08T06:51:08;23.70;50.70
65038;DHT22;51605;47.040;15.294;2023-10-08T06:53:41;23.70;50.80
65038;DHT22;51605;47.040;15.294;2023-10-08T06:56:08;23.80;50.80
65038;DHT22;51605;47.040;15.294;2023-10-08T06:58:38;23.70;50.80
65038;DHT22;51605;47.040;15.294;2023-10-08T07:01:03;23.70;50.80
65038;DHT22;51605;47.040;15.294;2023-10-08T07:03:35;23.70;50.80
65038;DHT22;51605;47.040;15.294;2023-10-08T07:06:01;23.80;50.80
65038;DHT22;51605;47.040;15.294;2023-10-08T07:08:43;23.80;50.80
65038;DHT22;51605;47.040;15.294;2023-10-08T07:11:12;23.90;50.80
65038;DHT22;51605;47.040;15.294;2023-10-08T07:13:39;23.90;50.80
65038;DHT22;51605;47.040;15.294;2023-10-08T07:16:08;23.90;50.80
65038;DHT22;51605;47.040;15.294;2023-10-08T07:18:37;23.90;50.70
65038;DHT22;51605;47.040;15.294;2023-10-08T07:21:03;23.80;50.60
65038;DHT22;51605;47.040;15.294;2023-10-08T07:23:37;23.90;51.40
65038;DHT22;51605;47.040;15.294;2023-10-08T07:26:27;23.90;50.20
65038;DHT22;51605;47.040;15.294;2023-10-08T07:29:02;23.90;50.10
65038;DHT22;51605;47.040;15.294;2023-10-08T07:31:34;23.80;50.10
65038;DHT22;51605;47.040;15.294;2023-10-08T07:34:00;23.80;50.20
65038;DHT22;51605;47.040;15.294;2023-10-08T07:36:41;23.80;50.10
65038;DHT22;51605;47.040;15.294;2023-10-08T07:39:07;23.80;50.10
65038;DHT22;51605;47.040;15.294;2023-10-08T07:41:34;23.80;50.10
65038;DHT22;51605;47.040;15.294;2023-10-08T07:44:00;23.80;50.20
65038;DHT22;51605;47.040;15.294;2023-10-08T07:46:26;23.80;50.30
65038;DHT22;51605;47.040;15.294;2023-10-08T07:48:55;23.80;50.20
65038;DHT22;51605;47.040;15.294;2023-10-08T07:51:22;23.80;50.20
65038;DHT22;51605;47.040;15.294;2023-10-08T07:53:52;23.80;50.20
65038;DHT22;51605;47.040;15.294;2023-10-08T07:56:25;23.80;50.30
65038;DHT22;51605;47.040;15.294;2023-10-08T07:58:54;23.80;50.20
65038;DHT22;51605;47.040;15.294;2023-10-08T08:01:22;23.80;50.30
65038;DHT22;51605;47.040;15.294;2023-10-08T08:03:50;23.80;50.40
65038;DHT22;51605;47.040;15.294;2023-10-08T08:06:15;23.80;50.50
65038;DHT22;51605;47.040;15.294;2023-10-08T08:08:41;23.80;50.30
65038;DHT22;51605;47.040;15.294;2023-10-08T08:11:08;23.80;50.40
65038;DHT22;51605;47.040;15.294;2023-10-08T08:13:43;23.70;50.40
65038;DHT22;51605;47.040;15.294;2023-10-08T08:16:13;23.70;50.40
65038;DHT22;51605;47.040;15.294;2023-10-08T08:18:47;23.70;50.50
65038;DHT22;51605;47.040;15.294;2023-10-08T08:21:35;23.80;50.50
65038;DHT22;51605;47.040;15.294;2023-10-08T08:24:01;23.70;50.50
65038;DHT22;51605;47.040;15.294;2023-10-08T08:26:33;23.70;50.60
65038;DHT22;51605;47.040;15.294;2023-10-08T08:29:05;23.70;50.70
65038;DHT22;51605;47.040;15.294;2023-10-08T08:31:34;23.70;50.50
65038;DHT22;51605;47.040;15.294;2023-10-08T08:34:03;23.80;50.50
65038;DHT22;51605;47.040;15.294;2023-10-08T08:36:33;23.80;50.50
65038;DHT22;51605;47.040;15.294;2023-10-08T08:39:02;23.80;50.40
65038;DHT22;51605;47.040;15.294;2023-10-08T08:41:30;23.80;50.50
65038;DHT22;51605;47.040;15.294;2023-10-08T08:43:55;23.80;50.50
65038;DHT22;51605;47.040;15.294;2023-10-08T08:46:37;23.80;50.40
65038;DHT22;51605;47.040;15.294;2023-10-08T08:49:07;23.80;50.40
65038;DHT22;51605;47.040;15.294;2023-10-08T08:51:34;23.80;50.40
65038;DHT22;51605;47.040;15.294;2023-10-08T08:54:02;23.80;50.40
65038;DHT22;51605;47.040;15.294;2023-10-08T08:56:33;23.90;50.40
65038;DHT22;51605;47.040;15.294;2023-10-08T08:58:59;23.90;50.40
65038;DHT22;51605;47.040;15.294;2023-10-08T09:01:26;23.90;50.50
65038;DHT22;51605;47.040;15.294;2023-10-08T09:03:59;23.80;50.40
65038;DHT22;51605;47.040;15.294;2023-10-08T09:06:26;23.80;50.40
65038;DHT22;51605;47.040;15.294;2023-10-08T09:08:53;23.80;50.40
65038;DHT22;51605;47.040;15.294;2023-10-08T09:11:21;23.80;50.40
65038;DHT22;51605;47.040;15.294;2023-10-08T09:13:47;23.90;50.40
65038;DHT22;51605;47.040;15.294;2023-10-08T09:16:14;23.90;50.40
65038;DHT22;51605;47.040;15.294;2023-10-08T09:18:49;23.80;50.30
65038;DHT22;51605;47.040;15.294;2023-10-08T09:21:17;23.80;50.40
65038;DHT22;51605;47.040;15.294;2023-10-08T09:23:52;23.80;50.30
65038;DHT22;51605;47.040;15.294;2023-10-08T09:26:24;23.80;50.40
65038;DHT22;51605;47.040;15.294;2023-10-08T09:28:50;23.80;50.40
65038;DHT22;51605;47.040;15.294;2023-10-08T09:31:17;23.80;50.40
65038;DHT22;51605;47.040;15.294;2023-10-08T09:34:03;23.90;50.40
65038;DHT22;51605;47.040;15.294;2023-10-08T09:36:29;23.90;50.40
65038;DHT22;51605;47.040;15.294;2023-10-08T09:39:01;23.90;50.40
65038;DHT22;51605;47.040;15.294;2023-10-08T09:41:31;23.80;50.40
65038;DHT22;51605;47.040;15.294;2023-10-08T09:43:58;23.90;50.50
65038;DHT22;51605;47.040;15.294;2023-10-08T09:46:30;23.80;50.50
65038;DHT22;51605;47.040;15.294;2023-10-08T09:49:00;23.90;50.60
65038;DHT22;51605;47.040;15.294;2023-10-08T09:51:29;23.90;50.50
65038;DHT22;51605;47.040;15.294;2023-10-08T09:56:29;23.80;50.50
65038;DHT22;51605;47.040;15.294;2023-10-08T09:58:57;23.80;50.60
65038;DHT22;51605;47.040;15.294;2023-10-08T10:01:25;23.80;50.60
65038;DHT22;51605;47.040;15.294;2023-10-08T10:03:52;23.80;50.70
65038;DHT22;51605;47.040;15.294;2023-10-08T10:06:18;23.80;50.60
65038;DHT22;51605;47.040;15.294;2023-10-08T10:08:45;23.80;50.70
65038;DHT22;51605;47.040;15.294;2023-10-08T10:11:11;23.80;50.70
65038;DHT22;51605;47.040;15.294;2023-10-08T10:13:42;23.80;50.70
65038;DHT22;51605;47.040;15.294;2023-10-08T10:16:10;23.80;50.70
65038;DHT22;51605;47.040;15.294;2023-10-08T10:18:38;23.90;50.60
65038;DHT22;51605;47.040;15.294;2023-10-08T10:23:44;23.90;50.70
65038;DHT22;51605;47.040;15.294;2023-10-08T10:26:28;23.90;50.70
65038;DHT22;51605;47.040;15.294;2023-10-08T10:31:54;23.80;50.70
65038;DHT22;51605;47.040;15.294;2023-10-08T10:34:24;23.80;51.60
65038;DHT22;51605;47.040;15.294;2023-10-08T10:36:54;23.80;50.70
65038;DHT22;51605;47.040;15.294;2023-10-08T10:39:21;23.90;50.90
65038;DHT22;51605;47.040;15.294;2023-10-08T10:41:57;23.90;50.80
65038;DHT22;51605;47.040;15.294;2023-10-08T10:44:26;23.80;50.70
65038;DHT22;51605;47.040;15.294;2023-10-08T10:46:52;23.80;50.70
65038;DHT22;51605;47.040;15.294;2023-10-08T10:49:38;23.90;50.80
65038;DHT22;51605;47.040;15.294;2023-10-08T10:52:23;23.80;50.80
65038;DHT22;51605;47.040;15.294;2023-10-08T10:55:04;23.80;50.80
65038;DHT22;51605;47.040;15.294;2023-10-08T10:57:57;23.80;50.80
65038;DHT22;51605;47.040;15.294;2023-10-08T11:00:30;23.80;50.80
65038;DHT22;51605;47.040;15.294;2023-10-08T11:03:00;23.90;50.80
65038;DHT22;51605;47.040;15.294;2023-10-08T11:05:32;23.80;51.30
65038;DHT22;51605;47.040;15.294;2023-10-08T11:08:03;23.80;50.90
65038;DHT22;51605;47.040;15.294;2023-10-08T11:10:34;23.80;50.80
65038;DHT22;51605;47.040;15.294;2023-10-08T11:13:05;23.80;50.80
65038;DHT22;51605;47.040;15.294;2023-10-08T11:15:40;23.80;50.80
65038;DHT22;51605;47.040;15.294;2023-10-08T11:18:13;23.80;50.80
65038;DHT22;51605;47.040;15.294;2023-10-08T11:20:43;23.80;50.80
65038;DHT22;51605;47.040;15.294;2023-10-08T11:23:31;23.80;50.80
65038;DHT22;51605;47.040;15.294;2023-10-08T11:26:00;23.80;50.80
65038;DHT22;51605;47.040;15.294;2023-10-08T11:28:38;23.80;50.80
65038;DHT22;51605;47.040;15.294;2023-10-08T11:31:10;23.80;51.20
65038;DHT22;51605;47.040;15.294;2023-10-08T11:33:37;23.90;51.00
65038;DHT22;51605;47.040;15.294;2023-10-08T11:36:05;23.90;51.00
65038;DHT22;51605;47.040;15.294;2023-10-08T11:38:42;23.90;50.80
65038;DHT22;51605;47.040;15.294;2023-10-08T11:41:15;23.90;50.80
65038;DHT22;51605;47.040;15.294;2023-10-08T11:43:48;23.90;51.30
65038;DHT22;51605;47.040;15.294;2023-10-08T11:46:20;23.90;51.40
65038;DHT22;51605;47.040;15.294;2023-10-08T11:48:46;23.90;51.60
65038;DHT22;51605;47.040;15.294;2023-10-08T11:51:12;23.90;51.70
65038;DHT22;51605;47.040;15.294;2023-10-08T11:53:42;23.90;51.80
65038;DHT22;51605;47.040;15.294;2023-10-08T11:56:13;23.90;51.80
65038;DHT22;51605;47.040;15.294;2023-10-08T11:58:41;23.90;51.90
65038;DHT22;51605;47.040;15.294;2023-10-08T12:01:13;23.90;51.90
65038;DHT22;51605;47.040;15.294;2023-10-08T12:03:44;23.90;52.00
65038;DHT22;51605;47.040;15.294;2023-10-08T12:06:13;23.90;51.90
65038;DHT22;51605;47.040;15.294;2023-10-08T12:08:47;23.90;52.10
65038;DHT22;51605;47.040;15.294;2023-10-08T12:11:19;23.90;52.10
65038;DHT22;51605;47.040;15.294;2023-10-08T12:13:45;23.80;52.10
65038;DHT22;51605;47.040;15.294;2023-10-08T12:16:14;23.80;52.10
65038;DHT22;51605;47.040;15.294;2023-10-08T12:18:47;23.90;52.20
65038;DHT22;51605;47.040;15.294;2023-10-08T12:21:24;23.90;52.20
65038;DHT22;51605;47.040;15.294;2023-10-08T12:23:50;23.90;52.20
65038;DHT22;51605;47.040;15.294;2023-10-08T12:26:17;23.90;52.30
65038;DHT22;51605;47.040;15.294;2023-10-08T12:28:45;23.90;52.40
65038;DHT22;51605;47.040;15.294;2023-10-08T12:31:12;23.90;52.20
65038;DHT22;51605;47.040;15.294;2023-10-08T12:33:38;23.90;52.20
65038;DHT22;51605;47.040;15.294;2023-10-08T12:36:05;23.90;52.40
65038;DHT22;51605;47.040;15.294;2023-10-08T12:38:37;24.00;52.10
65038;DHT22;51605;47.040;15.294;2023-10-08T12:41:02;24.00;52.30
65038;DHT22;51605;47.040;15.294;2023-10-08T12:43:40;24.00;52.60
65038;DHT22;51605;47.040;15.294;2023-10-08T12:46:12;23.90;53.00
65038;DHT22;51605;47.040;15.294;2023-10-08T12:48:45;24.00;53.50
65038;DHT22;51605;47.040;15.294;2023-10-08T12:51:14;24.00;53.90
65038;DHT22;51605;47.040;15.294;2023-10-08T12:53:40;24.00;54.00
65038;DHT22;51605;47.040;15.294;2023-10-08T12:56:09;24.00;54.10
65038;DHT22;51605;47.040;15.294;2023-10-08T12:58:47;24.00;53.50
65038;DHT22;51605;47.040;15.294;2023-10-08T13:01:19;24.10;52.70
65038;DHT22;51605;47.040;15.294;2023-10-08T13:03:45;24.10;52.10
65038;DHT22;51605;47.040;15.294;2023-10-08T13:06:19;24.10;51.50
65038;DHT22;51605;47.040;15.294;2023-10-08T13:08:51;24.20;51.40
65038;DHT22;51605;47.040;15.294;2023-10-08T13:11:19;24.20;51.50
65038;DHT22;51605;47.040;15.294;2023-10-08T13:13:49;24.20;51.10
65038;DHT22;51605;47.040;15.294;2023-10-08T13:16:14;24.20;50.70
65038;DHT22;51605;47.040;15.294;2023-10-08T13:18:40;24.20;50.40
65038;DHT22;51605;47.040;15.294;2023-10-08T13:21:09;24.20;49.90
65038;DHT22;51605;47.040;15.294;2023-10-08T13:23:35;24.20;49.60
65038;DHT22;51605;47.040;15.294;2023-10-08T13:26:01;24.20;49.30
65038;DHT22;51605;47.040;15.294;2023-10-08T13:28:30;24.20;49.10
65038;DHT22;51605;47.040;15.294;2023-10-08T13:31:02;24.20;48.70
65038;DHT22;51605;47.040;15.294;2023-10-08T13:33:42;24.20;48.60
65038;DHT22;51605;47.040;15.294;2023-10-08T13:36:10;24.20;48.20
65038;DHT22;51605;47.040;15.294;2023-10-08T13:38:37;24.30;48.20
65038;DHT22;51605;47.040;15.294;2023-10-08T13:41:09;24.30;48.00
65038;DHT22;51605;47.040;15.294;2023-10-08T13:43:42;24.30;47.70
65038;DHT22;51605;47.040;15.294;2023-10-08T13:46:12;24.30;47.60
65038;DHT22;51605;47.040;15.294;2023-10-08T13:48:40;24.30;47.60
65038;DHT22;51605;47.040;15.294;2023-10-08T13:51:07;24.30;47.50
65038;DHT22;51605;47.040;15.294;2023-10-08T13:53:39;24.30;47.40
65038;DHT22;51605;47.040;15.294;2023-10-08T13:56:05;24.30;47.20
65038;DHT22;51605;47.040;15.294;2023-10-08T13:58:31;24.30;47.10
65038;DHT22;51605;47.040;15.294;2023-10-08T14:01:01;24.30;47.00
65038;DHT22;51605;47.040;15.294;2023-10-08T14:03:29;24.30;47.00
65038;DHT22;51605;47.040;15.294;2023-10-08T14:05:59;24.30;46.90
65038;DHT22;51605;47.040;15.294;2023-10-08T14:08:30;24.30;46.70
65038;DHT22;51605;47.040;15.294;2023-10-08T14:10:57;24.30;46.70
65038;DHT22;51605;47.040;15.294;2023-10-08T14:13:32;24.30;46.60
65038;DHT22;51605;47.040;15.294;2023-10-08T14:15:58;24.30;46.50
65038;DHT22;51605;47.040;15.294;2023-10-08T14:18:25;24.30;46.40
65038;DHT22;51605;47.040;15.294;2023-10-08T14:21:06;24.30;46.40
65038;DHT22;51605;47.040;15.294;2023-10-08T14:23:36;24.30;46.30
65038;DHT22;51605;47.040;15.294;2023-10-08T14:26:08;24.30;46.20
65038;DHT22;51605;47.040;15.294;2023-10-08T14:28:35;24.40;46.20
65038;DHT22;51605;47.040;15.294;2023-10-08T14:31:19;24.30;46.10
65038;DHT22;51605;47.040;15.294;2023-10-08T14:33:48;24.40;46.00
65038;DHT22;51605;47.040;15.294;2023-10-08T14:36:47;24.30;46.00
65038;DHT22;51605;47.040;15.294;2023-10-08T14:39:32;24.40;45.80
65038;DHT22;51605;47.040;15.294;2023-10-08T14:42:17;24.40;45.80
65038;DHT22;51605;47.040;15.294;2023-10-08T14:45:02;24.30;45.70
65038;DHT22;51605;47.040;15.294;2023-10-08T14:47:29;24.40;45.70
65038;DHT22;51605;47.040;15.294;2023-10-08T14:49:54;24.30;45.70
65038;DHT22;51605;47.040;15.294;2023-10-08T14:52:21;24.30;45.50
65038;DHT22;51605;47.040;15.294;2023-10-08T14:54:46;24.40;45.50
65038;DHT22;51605;47.040;15.294;2023-10-08T14:57:12;24.40;45.50
65038;DHT22;51605;47.040;15.294;2023-10-08T14:59:40;24.30;46.70
65038;DHT22;51605;47.040;15.294;2023-10-08T15:02:06;24.30;47.20
65038;DHT22;51605;47.040;15.294;2023-10-08T15:04:32;24.30;46.80
65038;DHT22;51605;47.040;15.294;2023-10-08T15:07:01;24.40;46.40
65038;DHT22;51605;47.040;15.294;2023-10-08T15:09:27;24.30;46.10
65038;DHT22;51605;47.040;15.294;2023-10-08T15:11:53;24.30;46.10
65038;DHT22;51605;47.040;15.294;2023-10-08T15:14:20;24.30;45.90
65038;DHT22;51605;47.040;15.294;2023-10-08T15:16:47;24.30;45.80
65038;DHT22;51605;47.040;15.294;2023-10-08T15:19:21;24.30;45.70
65038;DHT22;51605;47.040;15.294;2023-10-08T15:21:50;24.30;45.60
65038;DHT22;51605;47.040;15.294;2023-10-08T15:24:20;24.30;45.60
65038;DHT22;51605;47.040;15.294;2023-10-08T15:26:51;24.30;45.40
65038;DHT22;51605;47.040;15.294;2023-10-08T15:29:18;24.40;45.40
65038;DHT22;51605;47.040;15.294;2023-10-08T15:31:45;24.40;45.40
65038;DHT22;51605;47.040;15.294;2023-10-08T15:34:11;24.40;45.30
65038;DHT22;51605;47.040;15.294;2023-10-08T15:36:41;24.30;45.20
65038;DHT22;51605;47.040;15.294;2023-10-08T15:39:07;24.40;45.20
65038;DHT22;51605;47.040;15.294;2023-10-08T15:41:39;24.40;45.20
65038;DHT22;51605;47.040;15.294;2023-10-08T15:44:05;24.40;45.10
65038;DHT22;51605;47.040;15.294;2023-10-08T15:46:34;24.30;45.00
65038;DHT22;51605;47.040;15.294;2023-10-08T15:49:01;24.30;45.00
65038;DHT22;51605;47.040;15.294;2023-10-08T15:51:29;24.40;44.90
65038;DHT22;51605;47.040;15.294;2023-10-08T15:53:55;24.30;44.80